createdAt,value
2019-03-05T00:09:01.901Z,7.47
2019-03-05T00:19:01.942Z,8.09
2019-03-05T00:29:01.905Z,6.11
2019-03-05T00:39:02.010Z,5.68
2019-03-05T00:49:01.918Z,5.56
2019-03-05T00:59:02.009Z,5.90
2019-03-05T01:09:01.845Z,5.28
2019-03-05T01:19:01.825Z,5.47
2019-03-05T01:29:02.489Z,4.58
2019-03-05T01:39:01.800Z,5.26
2019-03-05T01:49:01.809Z,5.45
2019-03-05T01:59:01.833Z,5.35
2019-03-05T02:09:02.415Z,6.04
2019-03-05T02:19:01.816Z,6.01
2019-03-05T02:29:01.932Z,6.37
2019-03-05T02:39:01.789Z,6.68
2019-03-05T02:49:01.819Z,5.97
2019-03-05T02:59:01.858Z,6.69
2019-03-05T03:09:01.756Z,6.56
2019-03-05T03:19:01.742Z,6.08
2019-03-05T03:29:01.758Z,6.60
2019-03-05T03:39:01.767Z,5.69
2019-03-05T03:49:01.845Z,6.16
2019-03-05T03:59:03.030Z,5.99
2019-03-05T04:09:01.767Z,5.09
2019-03-05T04:19:01.762Z,5.53
2019-03-05T04:29:01.808Z,5.49
2019-03-05T04:39:02.780Z,7.07
2019-03-05T04:49:01.961Z,5.51
2019-03-05T04:59:01.735Z,5.67
2019-03-05T05:09:04.451Z,4.33
2019-03-05T05:19:01.727Z,4.46
2019-03-05T05:29:01.689Z,4.98
2019-03-05T05:39:01.689Z,6.08
2019-03-05T05:49:01.615Z,6.46
2019-03-05T05:59:02.440Z,5.02
2019-03-05T06:09:01.717Z,4.37
2019-03-05T06:19:01.720Z,5.20
2019-03-05T06:29:02.951Z,4.64
2019-03-05T06:39:01.702Z,4.73
2019-03-05T06:49:03.151Z,4.72
2019-03-05T06:59:01.717Z,3.86
2019-03-05T07:09:01.680Z,3.75
2019-03-05T07:19:05.479Z,4.38
2019-03-05T07:29:02.549Z,4.24
2019-03-05T07:39:01.654Z,5.02
2019-03-05T07:49:01.728Z,4.55
2019-03-05T07:59:01.742Z,4.64
2019-03-05T08:09:02.398Z,5.06
2019-03-05T08:19:01.767Z,5.64
2019-03-05T08:29:02.947Z,4.59
2019-03-05T08:39:02.642Z,4.68
2019-03-05T08:49:01.796Z,4.75
2019-03-05T08:59:02.672Z,4.80
2019-03-05T09:09:02.737Z,3.94
2019-03-05T09:19:01.685Z,4.16
2019-03-05T09:29:02.738Z,4.17
2019-03-05T09:39:04.555Z,4.50
2019-03-05T09:49:01.721Z,3.92
2019-03-05T09:59:02.399Z,5.24
2019-03-05T10:09:01.841Z,4.05
2019-03-05T10:19:02.422Z,5.02
2019-03-05T10:39:08.027Z,2.92
2019-03-05T10:49:07.255Z,4.11
2019-03-05T10:59:07.116Z,3.71
2019-03-05T11:09:07.163Z,4.50
2019-03-05T11:19:08.966Z,4.17
2019-03-05T11:29:07.121Z,4.84
2019-03-05T11:39:08.997Z,4.01
2019-03-05T11:49:07.135Z,4.28
2019-03-05T11:59:07.623Z,4.38
2019-03-05T12:09:07.256Z,3.62
2019-03-05T12:19:08.590Z,4.53
2019-03-05T12:29:07.101Z,4.16
2019-03-05T12:39:07.164Z,5.65
2019-03-05T12:49:07.179Z,4.70
2019-03-05T12:59:07.229Z,5.48
2019-03-05T13:09:07.238Z,5.50
2019-03-05T13:19:09.602Z,4.74
2019-03-05T13:29:08.211Z,5.18
2019-03-05T13:39:07.557Z,3.93
2019-03-05T13:49:08.282Z,3.21
2019-03-05T13:59:07.096Z,4.32
2019-03-05T14:09:08.993Z,4.14
2019-03-05T14:19:07.498Z,2.69
2019-03-05T14:29:07.508Z,3.74
2019-03-05T14:39:07.240Z,3.00
2019-03-05T14:49:07.116Z,4.17
2019-03-05T14:59:07.956Z,3.85
2019-03-05T15:09:15.389Z,4.43
2019-03-05T15:39:08.464Z,3.58
2019-03-05T15:49:08.334Z,2.52
2019-03-05T15:59:08.432Z,3.76
2019-03-05T16:09:09.448Z,3.80
2019-03-05T16:19:12.455Z,2.89
2019-03-05T16:29:08.428Z,2.71
2019-03-05T16:39:10.413Z,2.84
2019-03-05T16:49:08.495Z,2.81
2019-03-05T16:59:08.959Z,3.31
2019-03-05T17:09:08.442Z,3.24
2019-03-05T17:19:08.319Z,3.64
2019-03-05T17:29:08.372Z,3.31
2019-03-05T17:39:08.406Z,3.11
2019-03-05T17:49:08.431Z,2.80
2019-03-05T17:59:08.409Z,2.59
2019-03-05T18:09:08.431Z,2.41
2019-03-05T18:19:08.390Z,2.55
2019-03-05T18:29:08.389Z,1.96
2019-03-05T18:39:08.405Z,2.07
2019-03-05T18:49:08.391Z,2.29
2019-03-05T18:59:08.338Z,2.96
2019-03-05T19:09:09.243Z,2.55
2019-03-05T19:19:08.450Z,2.38
2019-03-05T19:29:08.473Z,2.96
2019-03-05T19:39:08.337Z,2.38
2019-03-05T19:49:08.413Z,2.15
2019-03-05T19:59:09.430Z,2.94
2019-03-05T20:09:08.425Z,3.27
2019-03-05T20:19:08.375Z,2.59
2019-03-05T20:29:09.216Z,2.78
2019-03-05T20:39:08.362Z,3.13
2019-03-05T20:49:08.406Z,3.45
2019-03-05T20:59:08.329Z,3.75
2019-03-05T21:09:08.367Z,3.63
2019-03-05T21:19:08.483Z,3.24
2019-03-05T21:29:08.367Z,2.34
2019-03-05T21:39:08.363Z,2.51
2019-03-05T21:49:08.374Z,2.86
2019-03-05T21:59:08.288Z,3.32
2019-03-05T22:09:08.278Z,2.28
2019-03-05T22:19:08.285Z,3.71
2019-03-05T22:29:08.350Z,3.77
2019-03-05T22:39:08.286Z,2.66
2019-03-05T22:49:08.407Z,3.20
2019-03-05T22:59:08.376Z,2.84
2019-03-05T23:09:13.675Z,2.21
2019-03-05T23:19:08.323Z,3.33
2019-03-05T23:29:08.340Z,3.67
2019-03-05T23:39:08.432Z,2.56
2019-03-05T23:49:08.355Z,3.21
2019-03-05T23:59:08.326Z,3.12
